Řízení letového provozu České republiky
Letiste: LKKV Aktualizace: 17.02.2019 01:01:07  UTC
 METAR LKKV 17.02. 01:00 ...
METAR LKKV 170100Z 04002KT CAVOK M02/M03 Q1027 RMK REG QNH 1023=
 TAF LKKV 16.02. 23:00 ...
TAF LKKV 162300Z 1700/1806 14004KT CAVOK      PROB30 TEMPO 1802/1806 2000 MIFG NSC=